createdAt,value
2023-06-19T00:01:10.422Z,39.99
2023-06-19T00:03:41.148Z,39.90
2023-06-19T00:06:22.874Z,40.22
2023-06-19T00:08:52.269Z,40.39
2023-06-19T00:11:20.872Z,40.62
2023-06-19T00:13:49.564Z,40.82
2023-06-19T00:16:23.302Z,40.82
2023-06-19T00:18:57.399Z,41.40
2023-06-19T00:21:26.916Z,41.29
2023-06-19T00:24:01.288Z,41.62
2023-06-19T00:26:31.801Z,41.68
2023-06-19T00:29:01.879Z,41.69
2023-06-19T00:31:29.848Z,41.70
2023-06-19T00:33:59.692Z,41.84
2023-06-19T00:36:28.174Z,41.63
2023-06-19T00:38:57.562Z,41.77
2023-06-19T00:41:25.815Z,41.91
2023-06-19T00:43:56.724Z,41.61
2023-06-19T00:46:24.566Z,41.81
2023-06-19T00:48:52.540Z,41.62
2023-06-19T00:51:22.408Z,41.77
2023-06-19T00:53:50.357Z,41.57
2023-06-19T00:56:23.701Z,41.55
2023-06-19T00:58:52.021Z,41.43
2023-06-19T01:01:20.305Z,41.31
2023-06-19T01:03:48.247Z,41.23
2023-06-19T01:06:17.639Z,41.10
2023-06-19T01:08:51.351Z,41.12
2023-06-19T01:11:26.628Z,40.79
2023-06-19T01:13:59.186Z,40.63
2023-06-19T01:16:28.903Z,41.09
2023-06-19T01:18:57.451Z,40.74
2023-06-19T01:21:25.399Z,40.79
2023-06-19T01:23:54.519Z,40.32
2023-06-19T01:26:27.371Z,40.37
2023-06-19T01:28:55.870Z,40.15
2023-06-19T01:31:25.561Z,40.09
2023-06-19T01:33:53.745Z,40.25
2023-06-19T01:36:34.179Z,39.94
2023-06-19T01:39:03.326Z,39.89
2023-06-19T01:41:31.159Z,39.79
2023-06-19T01:43:58.869Z,39.52
2023-06-19T01:46:26.773Z,39.40
2023-06-19T01:48:54.794Z,39.58
2023-06-19T01:51:22.830Z,39.70
2023-06-19T01:53:50.722Z,39.46
2023-06-19T01:56:20.079Z,39.55
2023-06-19T01:58:47.834Z,39.38
2023-06-19T02:01:15.983Z,39.24
2023-06-19T02:03:44.084Z,39.32
2023-06-19T02:06:12.085Z,39.26
2023-06-19T02:08:40.817Z,39.75
2023-06-19T02:11:09.362Z,39.42
2023-06-19T02:13:46.551Z,39.39
2023-06-19T02:16:14.305Z,39.29
2023-06-19T02:18:42.314Z,39.67
2023-06-19T02:21:10.574Z,39.52
2023-06-19T02:23:38.448Z,39.74
2023-06-19T02:26:06.149Z,39.60
2023-06-19T02:28:34.190Z,39.55
2023-06-19T02:31:06.439Z,39.42
2023-06-19T02:33:34.408Z,39.35
2023-06-19T02:36:02.914Z,39.07
2023-06-19T02:38:31.383Z,39.30
2023-06-19T02:41:01.529Z,39.06
2023-06-19T02:43:29.739Z,39.26
2023-06-19T02:45:57.584Z,39.08
2023-06-19T02:48:26.958Z,39.21
2023-06-19T02:50:54.731Z,39.06
2023-06-19T02:53:22.578Z,39.07
2023-06-19T02:55:50.409Z,39.22
2023-06-19T02:58:18.143Z,39.09
2023-06-19T03:00:48.352Z,39.21
2023-06-19T03:03:16.114Z,39.26
2023-06-19T03:05:45.468Z,39.26
2023-06-19T03:08:13.396Z,39.31
2023-06-19T03:10:41.120Z,39.42
2023-06-19T03:13:08.976Z,39.43
2023-06-19T03:15:36.828Z,39.33
2023-06-19T03:18:07.854Z,39.44
2023-06-19T03:20:35.595Z,39.65
2023-06-19T03:23:04.797Z,39.68
2023-06-19T03:25:35.915Z,39.79
2023-06-19T03:28:04.009Z,40.01
2023-06-19T03:30:32.093Z,40.03
2023-06-19T03:33:01.192Z,40.42
2023-06-19T03:35:29.824Z,40.37
2023-06-19T03:37:57.723Z,40.78
2023-06-19T03:40:26.790Z,41.23
2023-06-19T03:42:54.636Z,41.65
2023-06-19T03:45:22.340Z,41.88
2023-06-19T03:47:50.199Z,42.07
2023-06-19T03:50:21.140Z,42.35
2023-06-19T03:52:49.567Z,42.59
2023-06-19T03:55:17.368Z,42.86
2023-06-19T03:57:46.710Z,43.28
2023-06-19T04:00:16.691Z,43.26
2023-06-19T04:02:44.542Z,43.26
2023-06-19T04:05:12.309Z,43.70
2023-06-19T04:07:40.151Z,43.92
2023-06-19T04:10:08.980Z,43.68
2023-06-19T04:12:36.771Z,43.91
2023-06-19T04:15:07.019Z,44.50
2023-06-19T04:17:34.986Z,44.48
2023-06-19T04:20:03.417Z,44.44
2023-06-19T04:22:31.289Z,45.01
2023-06-19T04:24:59.009Z,45.66
2023-06-19T04:27:26.865Z,45.79
2023-06-19T04:29:54.688Z,45.96
2023-06-19T04:32:24.014Z,45.75
2023-06-19T04:34:51.782Z,45.92
2023-06-19T04:37:20.324Z,46.11
2023-06-19T04:39:48.083Z,46.21
2023-06-19T04:42:20.553Z,45.95
2023-06-19T04:44:49.397Z,45.86
2023-06-19T04:47:19.412Z,45.71
2023-06-19T04:49:48.691Z,45.88
2023-06-19T04:52:16.539Z,45.90
2023-06-19T04:54:44.244Z,45.69
2023-06-19T04:57:12.084Z,45.47
2023-06-19T04:59:39.786Z,45.45
2023-06-19T05:02:08.486Z,45.62
2023-06-19T05:04:36.414Z,45.87
2023-06-19T05:07:05.722Z,46.18
2023-06-19T05:09:33.875Z,46.54
2023-06-19T05:12:01.806Z,46.15
2023-06-19T05:14:29.731Z,46.13
2023-06-19T05:16:57.526Z,45.99
2023-06-19T05:19:26.695Z,46.28
2023-06-19T05:21:54.457Z,45.95
2023-06-19T05:24:25.904Z,46.04
2023-06-19T05:26:53.660Z,45.83
2023-06-19T05:29:21.480Z,45.86
2023-06-19T05:31:49.436Z,45.39
2023-06-19T05:34:17.318Z,45.49
2023-06-19T05:36:46.202Z,45.44
2023-06-19T05:39:14.063Z,45.19
2023-06-19T05:41:43.156Z,44.91
2023-06-19T05:44:11.002Z,44.89
2023-06-19T05:46:38.808Z,44.68
2023-06-19T05:49:06.635Z,44.63
2023-06-19T05:51:34.365Z,44.43
2023-06-19T05:54:04.843Z,44.05
2023-06-19T05:56:34.290Z,43.75
2023-06-19T05:59:03.778Z,43.89
2023-06-19T06:01:31.548Z,43.35
2023-06-19T06:03:59.480Z,42.82
2023-06-19T06:06:27.742Z,43.21
2023-06-19T06:08:56.040Z,43.06
2023-06-19T06:11:24.078Z,42.08
2023-06-19T06:13:51.787Z,41.94
2023-06-19T06:16:21.108Z,41.95
2023-06-19T06:18:49.122Z,41.96
2023-06-19T06:21:17.187Z,41.57
2023-06-19T06:23:45.862Z,40.98
2023-06-19T06:26:13.895Z,39.82
2023-06-19T06:28:42.359Z,40.20
2023-06-19T06:36:33.873Z,40.47
2023-06-19T06:39:03.652Z,40.13
2023-06-19T06:41:31.448Z,40.74
2023-06-19T06:43:59.291Z,40.85
2023-06-19T06:46:27.196Z,40.71
2023-06-19T06:48:55.075Z,40.73
2023-06-19T06:51:24.348Z,39.55
2023-06-19T06:53:52.975Z,39.94
2023-06-19T06:56:20.706Z,38.76
2023-06-19T06:58:48.468Z,38.60
2023-06-19T07:01:16.327Z,38.13
2023-06-19T07:03:47.689Z,37.75
2023-06-19T07:06:15.654Z,37.36
2023-06-19T07:08:48.481Z,37.73
2023-06-19T07:11:16.384Z,37.45
2023-06-19T07:13:44.159Z,37.26
2023-06-19T07:16:12.646Z,37.67
2023-06-19T07:18:43.028Z,37.31
2023-06-19T07:21:15.035Z,37.99
2023-06-19T07:23:47.119Z,37.70
2023-06-19T07:26:17.010Z,38.17
2023-06-19T07:28:44.822Z,38.38
2023-06-19T07:31:12.576Z,38.14
2023-06-19T07:33:40.766Z,38.49
2023-06-19T07:36:09.382Z,38.23
2023-06-19T07:38:37.208Z,37.97
2023-06-19T07:41:08.424Z,38.13
2023-06-19T07:43:36.218Z,38.14
2023-06-19T07:46:04.134Z,38.67
2023-06-19T07:48:32.237Z,38.23
2023-06-19T07:50:59.937Z,38.20
2023-06-19T07:53:27.765Z,38.21
2023-06-19T07:55:55.897Z,38.50
2023-06-19T07:58:24.970Z,38.65
2023-06-19T08:00:53.184Z,38.53
2023-06-19T08:03:21.082Z,38.02
2023-06-19T08:05:48.914Z,38.14
2023-06-19T08:08:17.710Z,38.56
2023-06-19T08:10:45.594Z,38.25
2023-06-19T08:13:14.343Z,38.44
2023-06-19T08:15:45.637Z,38.56
2023-06-19T08:18:13.473Z,39.09
2023-06-19T08:20:41.398Z,39.18
2023-06-19T08:23:09.081Z,40.04
2023-06-19T08:25:37.804Z,40.53
2023-06-19T08:28:05.949Z,40.77
2023-06-19T08:30:37.306Z,40.74
2023-06-19T08:33:11.412Z,41.58
2023-06-19T08:35:39.291Z,41.20
2023-06-19T08:38:07.320Z,41.63
2023-06-19T08:40:35.318Z,40.90
2023-06-19T08:43:03.074Z,40.62
2023-06-19T08:45:31.127Z,40.83
2023-06-19T08:48:01.882Z,40.06
2023-06-19T08:50:31.407Z,39.35
2023-06-19T08:52:59.115Z,37.95
2023-06-19T08:55:26.834Z,37.29
2023-06-19T08:57:54.627Z,36.64
2023-06-19T09:00:27.612Z,36.06
2023-06-19T09:03:12.541Z,34.77
2023-06-19T09:05:51.400Z,32.74
2023-06-19T09:08:19.690Z,31.56
2023-06-19T09:10:57.512Z,31.46
2023-06-19T09:13:25.260Z,31.21
2023-06-19T09:15:59.868Z,30.85
2023-06-19T09:18:27.586Z,30.62
2023-06-19T09:20:56.851Z,30.44
2023-06-19T09:23:24.752Z,30.30
2023-06-19T09:25:53.345Z,30.39
2023-06-19T09:28:21.925Z,29.05
2023-06-19T09:30:57.274Z,28.80
2023-06-19T09:33:25.658Z,28.26
2023-06-19T09:35:53.431Z,27.52
2023-06-19T09:38:23.396Z,27.60
2023-06-19T09:40:51.145Z,27.95
2023-06-19T09:43:21.555Z,28.02
2023-06-19T09:45:50.253Z,29.01
2023-06-19T09:48:21.731Z,28.82
2023-06-19T09:50:51.210Z,28.03
2023-06-19T09:53:19.812Z,27.59
2023-06-19T09:55:49.394Z,27.48
2023-06-19T09:58:17.911Z,27.33
2023-06-19T10:00:45.700Z,26.55
2023-06-19T10:03:14.375Z,25.54
2023-06-19T10:05:42.419Z,25.13
2023-06-19T10:08:10.275Z,24.50
2023-06-19T10:10:38.285Z,24.89
2023-06-19T10:13:15.628Z,24.34
2023-06-19T10:15:43.917Z,24.92
2023-06-19T10:18:17.180Z,24.06
2023-06-19T10:20:46.346Z,22.69
2023-06-19T10:23:20.390Z,20.61
2023-06-19T10:25:50.405Z,20.47
2023-06-19T10:28:20.308Z,20.17
2023-06-19T10:30:55.002Z,19.81
2023-06-19T10:33:23.997Z,19.02
2023-06-19T10:35:52.080Z,19.16
2023-06-19T10:38:20.266Z,18.63
2023-06-19T10:40:48.753Z,18.72
2023-06-19T10:43:25.614Z,18.62
2023-06-19T10:45:54.087Z,18.00
2023-06-19T10:48:22.666Z,18.04
2023-06-19T10:51:01.677Z,18.20
2023-06-19T10:53:33.636Z,18.91
2023-06-19T10:56:02.900Z,19.63
2023-06-19T10:58:33.464Z,19.25
2023-06-19T11:01:13.459Z,20.57
2023-06-19T11:03:46.438Z,20.66
2023-06-19T11:06:15.025Z,20.03
2023-06-19T11:08:43.909Z,19.23
2023-06-19T11:11:12.064Z,19.07
2023-06-19T11:13:45.165Z,19.72
2023-06-19T11:16:25.472Z,19.71
2023-06-19T11:18:58.398Z,20.38
2023-06-19T11:21:34.184Z,20.55
2023-06-19T11:24:03.064Z,20.87
2023-06-19T11:26:32.393Z,20.96
2023-06-19T11:29:04.813Z,21.72
2023-06-19T11:31:32.507Z,21.41
2023-06-19T11:34:00.803Z,22.13
2023-06-19T11:36:28.759Z,21.47
2023-06-19T11:38:56.590Z,22.31
2023-06-19T11:41:28.184Z,22.57
2023-06-19T11:44:02.187Z,22.45
2023-06-19T11:46:33.167Z,23.28
2023-06-19T11:49:11.189Z,22.99
2023-06-19T11:51:38.983Z,23.86
2023-06-19T11:54:07.708Z,23.40
2023-06-19T11:56:35.941Z,23.84
2023-06-19T11:59:05.315Z,24.03
2023-06-19T12:01:33.630Z,24.41
2023-06-19T12:04:01.943Z,23.99
2023-06-19T12:06:29.898Z,24.23
2023-06-19T12:09:00.349Z,24.15
2023-06-19T12:11:28.030Z,24.10
2023-06-19T12:13:57.043Z,24.38
2023-06-19T12:16:26.403Z,24.43
2023-06-19T12:18:55.224Z,24.44
2023-06-19T12:21:35.595Z,24.43
2023-06-19T12:24:07.037Z,24.40
2023-06-19T12:26:38.132Z,24.42
2023-06-19T12:29:06.372Z,24.01
2023-06-19T12:36:51.604Z,24.23
2023-06-19T12:39:19.334Z,23.92
2023-06-19T12:41:47.159Z,24.26
2023-06-19T12:44:14.989Z,23.99
2023-06-19T12:46:42.813Z,24.57
2023-06-19T12:49:10.727Z,24.56
2023-06-19T12:51:38.495Z,24.49
2023-06-19T12:54:07.601Z,24.22
2023-06-19T12:56:35.380Z,24.41
2023-06-19T12:59:03.136Z,24.10
2023-06-19T13:01:30.903Z,24.51
2023-06-19T13:03:58.803Z,23.99
2023-06-19T13:06:26.762Z,23.92
2023-06-19T13:08:54.688Z,23.92
2023-06-19T13:11:23.800Z,23.74
2023-06-19T13:13:52.499Z,23.58
2023-06-19T13:16:30.215Z,23.62
2023-06-19T13:19:08.196Z,23.54
2023-06-19T13:21:36.925Z,23.43
2023-06-19T13:24:05.084Z,23.72
2023-06-19T13:26:34.232Z,23.53
2023-06-19T13:29:02.013Z,23.66
2023-06-19T13:31:29.891Z,23.17
2023-06-19T13:34:01.111Z,23.40
2023-06-19T13:36:28.892Z,23.64
2023-06-19T13:38:56.664Z,24.12
2023-06-19T13:41:25.093Z,23.78
2023-06-19T13:43:54.972Z,24.45
2023-06-19T13:46:23.685Z,25.21
2023-06-19T13:48:52.503Z,24.73
2023-06-19T13:51:20.604Z,24.76
2023-06-19T13:53:48.320Z,24.91
2023-06-19T13:56:16.768Z,24.98
2023-06-19T13:58:44.548Z,25.74
2023-06-19T14:01:13.632Z,25.85
2023-06-19T14:03:42.430Z,25.67
2023-06-19T14:06:10.210Z,25.10
2023-06-19T14:08:37.976Z,25.25
2023-06-19T14:11:05.821Z,25.17
2023-06-19T14:13:33.976Z,24.74
2023-06-19T14:16:01.703Z,25.18
2023-06-19T14:18:30.898Z,24.96
2023-06-19T14:20:58.770Z,25.35
2023-06-19T14:23:26.511Z,24.99
2023-06-19T14:25:54.330Z,24.68
2023-06-19T14:28:22.098Z,24.85
2023-06-19T14:30:49.849Z,24.33
2023-06-19T14:33:17.648Z,24.75
2023-06-19T14:35:47.089Z,24.73
2023-06-19T14:38:15.493Z,24.97
2023-06-19T14:40:43.607Z,24.55
2023-06-19T14:43:11.371Z,25.33
2023-06-19T14:45:41.060Z,24.68
2023-06-19T14:48:08.928Z,24.45
2023-06-19T14:50:36.764Z,24.65
2023-06-19T14:53:05.945Z,25.72
2023-06-19T14:55:33.711Z,26.03
2023-06-19T14:58:01.527Z,25.94
2023-06-19T15:00:29.266Z,26.01
2023-06-19T15:02:57.185Z,25.91
2023-06-19T15:05:24.985Z,25.39
2023-06-19T15:07:53.426Z,25.38
2023-06-19T15:10:23.041Z,25.94
2023-06-19T15:12:51.121Z,25.13
2023-06-19T15:15:18.895Z,24.65
2023-06-19T15:17:46.617Z,24.79
2023-06-19T15:20:18.029Z,24.93
2023-06-19T15:22:45.861Z,25.04
2023-06-19T15:25:13.640Z,25.79
2023-06-19T15:27:42.963Z,25.43
2023-06-19T15:30:11.632Z,25.79
2023-06-19T15:32:39.432Z,25.00
2023-06-19T15:35:08.192Z,25.35
2023-06-19T15:37:35.911Z,24.93
2023-06-19T15:40:04.050Z,25.50
2023-06-19T15:42:32.491Z,24.53
2023-06-19T15:45:01.840Z,25.29
2023-06-19T15:47:29.713Z,25.03
2023-06-19T15:49:57.589Z,25.16
2023-06-19T15:52:25.639Z,25.98
2023-06-19T15:54:53.502Z,25.06
2023-06-19T15:57:22.298Z,25.57
2023-06-19T15:59:52.840Z,25.10
2023-06-19T16:02:22.164Z,25.46
2023-06-19T16:04:50.025Z,25.73
2023-06-19T16:07:17.815Z,25.64
2023-06-19T16:09:55.307Z,26.17
2023-06-19T16:12:23.883Z,25.30
2023-06-19T16:14:51.581Z,25.37
2023-06-19T16:17:19.297Z,25.96
2023-06-19T16:19:48.481Z,25.59
2023-06-19T16:22:16.265Z,26.00
2023-06-19T16:24:44.054Z,26.33
2023-06-19T16:27:11.878Z,25.52
2023-06-19T16:29:39.595Z,25.58
2023-06-19T16:32:10.436Z,25.97
2023-06-19T16:34:38.944Z,25.86
2023-06-19T16:37:08.291Z,26.09
2023-06-19T16:39:36.080Z,25.49
2023-06-19T16:42:03.906Z,26.27
2023-06-19T16:44:31.659Z,25.55
2023-06-19T16:46:59.526Z,26.10
2023-06-19T16:49:27.290Z,26.34
2023-06-19T16:51:54.969Z,26.08
2023-06-19T16:54:24.144Z,25.93
2023-06-19T16:56:51.847Z,26.28
2023-06-19T16:59:19.513Z,26.53
2023-06-19T17:01:47.428Z,26.21
2023-06-19T17:04:15.177Z,26.32
2023-06-19T17:06:42.923Z,26.67
2023-06-19T17:09:10.612Z,26.62
2023-06-19T17:11:42.506Z,26.59
2023-06-19T17:14:10.697Z,26.87
2023-06-19T17:16:38.427Z,26.47
2023-06-19T17:19:06.613Z,26.32
2023-06-19T17:21:34.634Z,26.88
2023-06-19T17:24:02.479Z,26.88
2023-06-19T17:26:30.447Z,26.79
2023-06-19T17:28:59.957Z,27.23
2023-06-19T17:31:27.628Z,27.23
2023-06-19T17:33:56.413Z,26.72
2023-06-19T17:36:24.171Z,26.96
2023-06-19T17:38:51.931Z,27.37
2023-06-19T17:41:19.674Z,27.21
2023-06-19T17:43:47.420Z,27.00
2023-06-19T17:46:16.641Z,27.17
2023-06-19T17:48:44.367Z,27.52
2023-06-19T17:51:12.097Z,27.56
2023-06-19T17:53:40.618Z,27.59
2023-06-19T17:56:08.409Z,27.99
2023-06-19T17:58:36.227Z,28.43
2023-06-19T18:01:03.946Z,28.69
2023-06-19T18:03:33.124Z,28.74
2023-06-19T18:06:00.915Z,28.63
2023-06-19T18:08:28.643Z,28.56
2023-06-19T18:10:56.950Z,28.94
2023-06-19T18:13:24.686Z,29.31
2023-06-19T18:16:09.988Z,29.23
2023-06-19T18:18:40.937Z,29.54
2023-06-19T18:21:08.713Z,29.29
2023-06-19T18:23:36.471Z,29.13
2023-06-19T18:26:04.193Z,29.23
2023-06-19T18:28:31.906Z,29.80
2023-06-19T18:30:59.672Z,29.77
2023-06-19T18:33:27.625Z,30.03
2023-06-19T18:35:56.860Z,30.25
2023-06-19T18:38:24.717Z,29.77
2023-06-19T18:40:52.405Z,30.11
2023-06-19T18:43:20.104Z,30.26
2023-06-19T18:45:48.093Z,29.80
2023-06-19T18:48:15.919Z,29.81
2023-06-19T18:50:43.676Z,29.76
2023-06-19T18:53:12.866Z,30.50
2023-06-19T18:55:42.475Z,30.28
2023-06-19T18:58:11.794Z,30.75
2023-06-19T19:00:39.472Z,30.34
2023-06-19T19:03:08.486Z,30.62
2023-06-19T19:05:36.867Z,30.99
2023-06-19T19:08:04.865Z,30.33
2023-06-19T19:10:33.993Z,31.28
2023-06-19T19:13:03.565Z,30.89
2023-06-19T19:15:31.468Z,31.12
2023-06-19T19:17:59.237Z,31.93
2023-06-19T19:20:27.745Z,32.27
2023-06-19T19:22:55.594Z,31.46
2023-06-19T19:25:23.296Z,31.39
2023-06-19T19:27:52.389Z,32.25
2023-06-19T19:30:20.227Z,32.86
2023-06-19T19:32:48.083Z,32.71
2023-06-19T19:35:15.961Z,33.32
2023-06-19T19:37:43.652Z,33.59
2023-06-19T19:40:12.367Z,33.03
2023-06-19T19:42:40.088Z,34.00
2023-06-19T19:45:10.231Z,33.58
2023-06-19T19:47:37.953Z,33.67
2023-06-19T19:50:06.466Z,33.65
2023-06-19T19:52:34.150Z,34.26
2023-06-19T19:55:03.025Z,33.74
2023-06-19T19:57:30.829Z,34.32
2023-06-19T19:59:59.260Z,34.11
2023-06-19T20:02:28.422Z,34.47
2023-06-19T20:04:56.312Z,34.43
2023-06-19T20:07:25.022Z,35.06
2023-06-19T20:09:52.859Z,34.39
2023-06-19T20:12:22.253Z,34.70
2023-06-19T20:14:50.349Z,34.86
2023-06-19T20:17:18.099Z,35.39
2023-06-19T20:19:47.284Z,35.51
2023-06-19T20:22:15.075Z,35.30
2023-06-19T20:24:43.030Z,35.44
2023-06-19T20:27:12.159Z,35.35
2023-06-19T20:29:39.977Z,35.92
2023-06-19T20:32:08.698Z,35.43
2023-06-19T20:34:36.454Z,35.55
2023-06-19T20:37:06.074Z,36.40
2023-06-19T20:39:33.793Z,35.96
2023-06-19T20:42:03.602Z,36.27
2023-06-19T20:44:31.598Z,36.00
2023-06-19T20:47:01.628Z,35.71
2023-06-19T20:49:30.326Z,35.64
2023-06-19T20:51:58.102Z,36.12
2023-06-19T20:54:27.347Z,36.21
2023-06-19T20:56:55.136Z,36.15
2023-06-19T20:59:22.930Z,36.44
2023-06-19T21:01:50.693Z,36.31
2023-06-19T21:04:18.491Z,36.64
2023-06-19T21:06:46.344Z,36.67
2023-06-19T21:09:16.125Z,36.35
2023-06-19T21:11:46.278Z,36.76
2023-06-19T21:14:14.191Z,36.70
2023-06-19T21:16:42.448Z,36.53
2023-06-19T21:19:10.221Z,37.09
2023-06-19T21:21:38.038Z,36.65
2023-06-19T21:24:06.047Z,37.07
2023-06-19T21:26:34.035Z,37.08
2023-06-19T21:29:03.302Z,37.20
2023-06-19T21:31:31.037Z,36.89
2023-06-19T21:33:58.794Z,36.90
2023-06-19T21:36:26.555Z,37.59
2023-06-19T21:38:54.335Z,37.55
2023-06-19T21:41:22.484Z,37.72
2023-06-19T21:43:50.296Z,37.67
2023-06-19T21:46:19.516Z,37.96
2023-06-19T21:48:47.540Z,37.91
2023-06-19T21:51:15.306Z,38.02
2023-06-19T21:53:43.028Z,38.24
2023-06-19T21:56:10.752Z,37.92
2023-06-19T21:58:38.501Z,38.31
2023-06-19T22:01:06.317Z,37.68
2023-06-19T22:03:35.614Z,38.13
2023-06-19T22:06:03.833Z,38.08
2023-06-19T22:08:41.961Z,38.36
2023-06-19T22:11:10.744Z,38.16
2023-06-19T22:13:38.597Z,37.91
2023-06-19T22:16:06.307Z,38.13
2023-06-19T22:18:35.489Z,38.50
2023-06-19T22:21:03.331Z,38.03
2023-06-19T22:23:31.112Z,38.14
2023-06-19T22:25:58.968Z,38.63
2023-06-19T22:28:26.787Z,38.63
2023-06-19T22:30:54.505Z,38.37
2023-06-19T22:33:22.210Z,38.74
2023-06-19T22:35:51.689Z,38.81
2023-06-19T22:38:19.689Z,38.68
2023-06-19T22:40:47.471Z,38.48
2023-06-19T22:43:15.338Z,38.43
2023-06-19T22:45:43.444Z,38.41
2023-06-19T22:48:11.542Z,38.23
2023-06-19T22:50:39.375Z,38.25
2023-06-19T22:53:08.541Z,38.36
2023-06-19T22:55:36.346Z,38.39
2023-06-19T22:58:04.135Z,38.36
2023-06-19T23:00:31.880Z,38.39
2023-06-19T23:02:59.831Z,38.30
2023-06-19T23:05:27.913Z,38.58
2023-06-19T23:07:56.671Z,38.71
2023-06-19T23:10:25.763Z,38.82
2023-06-19T23:12:53.495Z,38.66
2023-06-19T23:15:21.354Z,38.83
2023-06-19T23:17:49.384Z,38.68
2023-06-19T23:20:18.583Z,38.94
2023-06-19T23:22:48.708Z,38.82
2023-06-19T23:25:16.514Z,39.05
2023-06-19T23:27:45.662Z,39.35
2023-06-19T23:30:13.698Z,39.25
2023-06-19T23:32:41.634Z,39.37
2023-06-19T23:35:10.292Z,39.40
2023-06-19T23:37:38.076Z,39.56
2023-06-19T23:40:08.861Z,39.59
2023-06-19T23:42:36.876Z,39.64
2023-06-19T23:45:06.824Z,39.65
2023-06-19T23:47:34.593Z,39.75
2023-06-19T23:50:02.361Z,39.64
2023-06-19T23:52:41.985Z,39.63
2023-06-19T23:55:11.370Z,39.46
2023-06-19T23:57:39.161Z,39.52
